Time;durP1;ratioP1;P1;durP2;ratioP2;P2;SDS_P1;SDS_P2;PMS_P1;PMS_P2;Temp;Humidity;BMP_temperature;BMP_pressure;BME280_temperature;BME280_humidity;BME280_pressure;Samples;Min_cycle;Max_cycle;Signal;HPM_P1;HPM_P2
2021/07/31 02:45:40;;;;;;;0.08;0.00;;;;;;;;;;10537397;28;20083;-26
2021/07/31 02:50:43;;;;;;;0.00;0.00;;;;;;;;;;10525788;28;20564;-25
2021/07/31 02:56:00;;;;;;;0.00;0.00;;;;;;;;;;10525077;28;20139;-25
2021/07/31 03:01:07;;;;;;;0.63;0.10;;;;;;;;;;10507612;28;20156;-26
2021/07/31 03:06:12;;;;;;;0.00;0.00;;;;;;;;;;10519594;28;20843;-25
2021/07/31 03:11:15;;;;;;;0.00;0.00;;;;;;;;;;10502286;28;20044;-24
2021/07/31 03:16:20;;;;;;;0.05;0.00;;;;;;;;;;10520554;28;20142;-25
2021/07/31 03:21:28;;;;;;;0.00;0.00;;;;;;;;;;10542879;28;20055;-24
2021/07/31 03:26:40;;;;;;;;;;;;;;;;;;10551314;28;20043;-23
2021/07/31 03:31:50;;;;;;;0.65;0.00;;;;;;;;;;10522047;28;19924;-24
2021/07/31 03:36:54;;;;;;;0.22;0.03;;;;;;;;;;10523882;28;20139;-24
2021/07/31 03:42:01;;;;;;;0.00;0.00;;;;;;;;;;10518246;28;20442;-23
2021/07/31 03:47:05;;;;;;;0.10;0.10;;;;;;;;;;10534809;28;20056;-23
2021/07/31 03:52:08;;;;;;;0.03;0.03;;;;;;;;;;10518517;28;20056;-24
2021/07/31 03:57:13;;;;;;;0.10;0.10;;;;;;;;;;10521109;28;20083;-24
2021/07/31 04:02:24;;;;;;;0.10;0.10;;;;;;;;;;10533241;28;20048;-24
2021/07/31 04:07:28;;;;;;;0.20;0.10;;;;;;;;;;10531264;28;20058;-25
2021/07/31 04:13:06;;;;;;;0.05;0.03;;;;;;;;;;10427141;28;20075;-24
2021/07/31 04:18:24;;;;;;;0.00;0.00;;;;;;;;;;10526044;28;20510;-24
2021/07/31 04:23:27;;;;;;;0.08;0.00;;;;;;;;;;10528378;28;20555;-26
2021/07/31 04:28:31;;;;;;;0.10;0.10;;;;;;;;;;10509691;28;20047;-24
2021/07/31 04:33:35;;;;;;;0.20;0.10;;;;;;;;;;10532039;28;20100;-25
2021/07/31 04:38:38;;;;;;;0.10;0.10;;;;;;;;;;10531810;28;20063;-24
2021/07/31 04:43:41;;;;;;;0.00;0.00;;;;;;;;;;10529100;28;20416;-25
2021/07/31 04:48:45;;;;;;;0.00;0.00;;;;;;;;;;10525691;28;20745;-24
2021/07/31 04:53:47;;;;;;;0.10;0.10;;;;;;;;;;10528965;28;20040;-24
2021/07/31 04:58:50;;;;;;;0.10;0.10;;;;;;;;;;10529432;28;20452;-27
2021/07/31 05:03:54;;;;;;;0.00;0.00;;;;;;;;;;10523000;28;20044;-25
2021/07/31 05:08:57;;;;;;;0.30;0.00;;;;;;;;;;10493698;28;20055;-25
2021/07/31 05:20:39;;;;;;;0.00;0.00;;;;;;;;;;10482126;28;20029;-25
2021/07/31 05:25:43;;;;;;;0.32;0.10;;;;;;;;;;10506939;28;20416;-25
2021/07/31 05:30:46;;;;;;;0.43;0.10;;;;;;;;;;10504843;28;20040;-24
2021/07/31 05:35:50;;;;;;;0.00;0.00;;;;;;;;;;10502848;28;20044;-25
2021/07/31 05:40:53;;;;;;;0.10;0.10;;;;;;;;;;10499586;28;20056;-25
2021/07/31 05:45:56;;;;;;;0.15;0.10;;;;;;;;;;10503745;28;20497;-24
2021/07/31 05:51:01;;;;;;;0.00;0.00;;;;;;;;;;10496431;28;20049;-24
2021/07/31 05:56:06;;;;;;;0.52;0.10;;;;;;;;;;10493399;28;20048;-25
2021/07/31 06:01:09;;;;;;;0.08;0.00;;;;;;;;;;10487208;28;20048;-27
2021/07/31 06:06:14;;;;;;;0.20;0.10;;;;;;;;;;10490733;28;20809;-26
2021/07/31 06:11:16;;;;;;;0.05;0.00;;;;;;;;;;10493025;28;20117;-24
2021/07/31 06:16:19;;;;;;;0.17;0.03;;;;;;;;;;10492758;28;20054;-25
2021/07/31 06:21:23;;;;;;;0.20;0.10;;;;;;;;;;10485198;28;20059;-24
2021/07/31 06:26:26;;;;;;;0.22;0.10;;;;;;;;;;10489847;28;20470;-24
2021/07/31 06:31:29;;;;;;;0.65;0.10;;;;;;;;;;10466398;28;20071;-24
2021/07/31 06:36:34;;;;;;;0.05;0.00;;;;;;;;;;10486646;28;20048;-25
2021/07/31 06:41:40;;;;;;;0.00;0.00;;;;;;;;;;10482107;28;20094;-24
2021/07/31 06:46:44;;;;;;;0.00;0.00;;;;;;;;;;10472926;28;20407;-25
2021/07/31 06:51:51;;;;;;;0.10;0.10;;;;;;;;;;10478641;28;20047;-25
2021/07/31 06:56:56;;;;;;;0.05;0.00;;;;;;;;;;10477200;28;20051;-24
2021/07/31 07:02:00;;;;;;;0.10;0.10;;;;;;;;;;10473806;28;20050;-26
2021/07/31 07:07:05;;;;;;;0.00;0.00;;;;;;;;;;10498332;28;20127;-24
2021/07/31 07:12:08;;;;;;;0.00;0.00;;;;;;;;;;10478452;28;20123;-25
2021/07/31 07:17:11;;;;;;;0.00;0.00;;;;;;;;;;10479211;28;20056;-24
2021/07/31 07:22:15;;;;;;;0.10;0.10;;;;;;;;;;10480653;28;20045;-24
2021/07/31 07:27:19;;;;;;;0.10;0.00;;;;;;;;;;10479813;28;20048;-25
2021/07/31 07:32:22;;;;;;;0.00;0.00;;;;;;;;;;10479444;28;20060;-25
2021/07/31 07:37:26;;;;;;;0.03;0.00;;;;;;;;;;10470419;28;20044;-23
2021/07/31 07:42:28;;;;;;;0.00;0.00;;;;;;;;;;10480371;28;20068;-24
2021/07/31 07:47:31;;;;;;;0.38;0.03;;;;;;;;;;10501791;28;20493;-24
2021/07/31 07:52:36;;;;;;;0.00;0.00;;;;;;;;;;10505688;28;20040;-24
2021/07/31 07:57:40;;;;;;;0.00;0.00;;;;;;;;;;10502402;28;20438;-24
2021/07/31 08:02:43;;;;;;;0.00;0.00;;;;;;;;;;10509185;28;20055;-26
2021/07/31 08:07:47;;;;;;;1.23;0.00;;;;;;;;;;10505217;28;20443;-24
2021/07/31 08:12:50;;;;;;;0.00;0.00;;;;;;;;;;10509107;28;20390;-24
2021/07/31 08:17:53;;;;;;;0.00;0.00;;;;;;;;;;10514475;28;20044;-24
2021/07/31 08:22:57;;;;;;;0.00;0.00;;;;;;;;;;10451051;28;20715;-24
2021/07/31 08:28:00;;;;;;;0.00;0.00;;;;;;;;;;10472680;28;20048;-23
2021/07/31 08:33:03;;;;;;;0.00;0.00;;;;;;;;;;10474988;28;20047;-24
2021/07/31 08:38:08;;;;;;;0.30;0.20;;;;;;;;;;10473594;28;20048;-24
2021/07/31 08:43:10;;;;;;;0.00;0.00;;;;;;;;;;10472770;28;20033;-24
2021/07/31 08:48:13;;;;;;;0.00;0.00;;;;;;;;;;10473054;28;20057;-25
2021/07/31 08:53:21;;;;;;;0.00;0.00;;;;;;;;;;10474168;28;20477;-24
2021/07/31 08:58:24;;;;;;;0.00;0.00;;;;;;;;;;10470695;28;20072;-25
2021/07/31 09:03:26;;;;;;;0.00;0.00;;;;;;;;;;10473320;28;20055;-24
2021/07/31 09:08:30;;;;;;;0.00;0.00;;;;;;;;;;10473824;28;20044;-25
2021/07/31 09:13:33;;;;;;;0.00;0.00;;;;;;;;;;10466481;28;20044;-24
2021/07/31 09:18:42;;;;;;;0.15;0.00;;;;;;;;;;10472456;28;20049;-25
2021/07/31 09:23:48;;;;;;;0.00;0.00;;;;;;;;;;10479164;28;20511;-26
2021/07/31 09:29:01;;;;;;;0.00;0.00;;;;;;;;;;10480029;28;20071;-24
2021/07/31 09:34:04;;;;;;;0.00;0.00;;;;;;;;;;10476973;28;20071;-24
2021/07/31 09:39:09;;;;;;;0.08;0.00;;;;;;;;;;10476174;28;20051;-24
2021/07/31 09:44:13;;;;;;;0.00;0.00;;;;;;;;;;10477598;28;20048;-25
2021/07/31 09:49:16;;;;;;;0.00;0.00;;;;;;;;;;10480631;28;20063;-24
2021/07/31 09:54:21;;;;;;;0.00;0.00;;;;;;;;;;10477424;28;20040;-26
2021/07/31 09:59:24;;;;;;;0.10;0.00;;;;;;;;;;10478551;28;20387;-26
2021/07/31 10:04:27;;;;;;;0.00;0.00;;;;;;;;;;10476896;28;20045;-25
2021/07/31 10:09:32;;;;;;;0.25;0.00;;;;;;;;;;10479798;28;20139;-25
2021/07/31 10:14:35;;;;;;;0.13;0.00;;;;;;;;;;10480051;28;20041;-26
2021/07/31 10:19:43;;;;;;;0.00;0.00;;;;;;;;;;10482751;28;20114;-26
2021/07/31 10:25:07;;;;;;;0.00;0.00;;;;;;;;;;10478450;28;20075;-25
2021/07/31 10:30:24;;;;;;;0.00;0.00;;;;;;;;;;10458954;28;20528;-27
2021/07/31 10:35:28;;;;;;;0.00;0.00;;;;;;;;;;10476415;28;20102;-26
2021/07/31 10:40:45;;;;;;;0.10;0.00;;;;;;;;;;10477459;28;20040;-25
2021/07/31 10:45:51;;;;;;;0.00;0.00;;;;;;;;;;10477988;28;20052;-27
2021/07/31 10:50:54;;;;;;;0.00;0.00;;;;;;;;;;10478912;28;20044;-26
2021/07/31 10:56:02;;;;;;;0.00;0.00;;;;;;;;;;10477978;28;20119;-27
2021/07/31 11:01:22;;;;;;;0.00;0.00;;;;;;;;;;10477212;28;20705;-25
2021/07/31 11:06:25;;;;;;;0.00;0.00;;;;;;;;;;10476753;28;20163;-25
2021/07/31 11:11:29;;;;;;;0.00;0.00;;;;;;;;;;10472811;28;20049;-25
2021/07/31 11:16:32;;;;;;;0.00;0.00;;;;;;;;;;10474040;28;20048;-26
2021/07/31 11:21:36;;;;;;;0.00;0.00;;;;;;;;;;10475878;28;20051;-25
2021/07/31 11:26:41;;;;;;;0.00;0.00;;;;;;;;;;10477335;28;20075;-25
2021/07/31 11:31:45;;;;;;;0.00;0.00;;;;;;;;;;10476879;28;20051;-25
2021/07/31 11:36:54;;;;;;;0.08;0.00;;;;;;;;;;10474884;28;20060;-26
2021/07/31 11:41:59;;;;;;;0.00;0.00;;;;;;;;;;10474625;28;20056;-26
2021/07/31 11:47:03;;;;;;;0.00;0.00;;;;;;;;;;10475499;28;20568;-26
2021/07/31 11:52:06;;;;;;;0.10;0.00;;;;;;;;;;10476033;28;20053;-26
2021/07/31 11:57:10;;;;;;;0.00;0.00;;;;;;;;;;10475339;28;20056;-26
2021/07/31 12:02:13;;;;;;;0.00;0.00;;;;;;;;;;10473255;28;20048;-26
2021/07/31 12:07:17;;;;;;;0.00;0.00;;;;;;;;;;10474560;28;20041;-25
2021/07/31 12:12:25;;;;;;;0.10;0.00;;;;;;;;;;10473194;28;20044;-25
2021/07/31 12:17:28;;;;;;;0.10;0.00;;;;;;;;;;10471462;28;20041;-26
2021/07/31 12:22:34;;;;;;;0.00;0.00;;;;;;;;;;10473747;28;20040;-25
2021/07/31 12:27:55;;;;;;;0.20;0.00;;;;;;;;;;10464983;28;20068;-29
2021/07/31 12:32:58;;;;;;;0.55;0.00;;;;;;;;;;10475124;28;20061;-28
2021/07/31 12:38:01;;;;;;;0.00;0.00;;;;;;;;;;10474923;28;20544;-28
2021/07/31 12:43:07;;;;;;;0.05;0.00;;;;;;;;;;10471284;28;20127;-27
2021/07/31 12:48:14;;;;;;;0.00;0.00;;;;;;;;;;10470774;28;20390;-27
2021/07/31 12:53:18;;;;;;;0.00;0.00;;;;;;;;;;10473262;28;20135;-27
2021/07/31 12:58:23;;;;;;;0.00;0.00;;;;;;;;;;10482888;28;20044;-27
2021/07/31 13:03:25;;;;;;;0.00;0.00;;;;;;;;;;10480822;28;20044;-27
2021/07/31 13:08:28;;;;;;;0.00;0.00;;;;;;;;;;10477048;28;20059;-27
2021/07/31 13:13:32;;;;;;;0.00;0.00;;;;;;;;;;10477925;28;20041;-28
2021/07/31 13:18:35;;;;;;;0.00;0.00;;;;;;;;;;10475973;28;20529;-28
2021/07/31 13:23:38;;;;;;;0.00;0.00;;;;;;;;;;10477252;28;20044;-27
2021/07/31 13:28:42;;;;;;;0.00;0.00;;;;;;;;;;10480070;28;20047;-27
2021/07/31 13:33:45;;;;;;;0.00;0.00;;;;;;;;;;10478318;28;20032;-26
2021/07/31 13:38:50;;;;;;;0.00;0.00;;;;;;;;;;10478931;28;20032;-27
2021/07/31 13:43:54;;;;;;;0.00;0.00;;;;;;;;;;10478374;28;20044;-27
2021/07/31 13:48:57;;;;;;;0.00;0.00;;;;;;;;;;10477841;28;20063;-27
2021/07/31 13:54:00;;;;;;;0.03;0.00;;;;;;;;;;10475338;28;20041;-25
2021/07/31 13:59:04;;;;;;;0.00;0.00;;;;;;;;;;10476611;28;20044;-26
2021/07/31 14:04:08;;;;;;;0.10;0.00;;;;;;;;;;10476959;28;20044;-26
2021/07/31 14:09:11;;;;;;;0.00;0.00;;;;;;;;;;10476661;28;20040;-27
2021/07/31 14:14:15;;;;;;;0.00;0.00;;;;;;;;;;10478760;28;20066;-25
2021/07/31 14:19:18;;;;;;;2.10;0.00;;;;;;;;;;10456997;28;20047;-28
2021/07/31 14:24:21;;;;;;;0.20;0.00;;;;;;;;;;10474606;28;20071;-26
2021/07/31 14:29:25;;;;;;;0.00;0.00;;;;;;;;;;10474280;28;20037;-25
2021/07/31 14:34:28;;;;;;;0.00;0.00;;;;;;;;;;10477121;28;20043;-26
2021/07/31 14:39:31;;;;;;;0.00;0.00;;;;;;;;;;10476282;28;20501;-26
2021/07/31 14:44:36;;;;;;;0.20;0.00;;;;;;;;;;10475678;28;20051;-25
2021/07/31 14:49:39;;;;;;;0.00;0.00;;;;;;;;;;10472995;28;20043;-26
2021/07/31 14:54:43;;;;;;;0.00;0.00;;;;;;;;;;10473080;28;20052;-26
2021/07/31 14:59:47;;;;;;;0.00;0.00;;;;;;;;;;10470913;28;20498;-27
2021/07/31 15:04:50;;;;;;;0.00;0.00;;;;;;;;;;10473804;28;20056;-25
2021/07/31 15:09:54;;;;;;;0.00;0.00;;;;;;;;;;10473312;28;20056;-25
2021/07/31 15:14:58;;;;;;;0.30;0.00;;;;;;;;;;10476088;28;20125;-25
2021/07/31 15:20:01;;;;;;;0.00;0.00;;;;;;;;;;10475437;28;20050;-26
2021/07/31 15:25:04;;;;;;;0.20;0.00;;;;;;;;;;10475513;28;20044;-25
2021/07/31 15:30:09;;;;;;;0.00;0.00;;;;;;;;;;10474412;28;20048;-26
2021/07/31 15:35:17;;;;;;;0.00;0.00;;;;;;;;;;10475448;28;20045;-25
2021/07/31 15:40:19;;;;;;;0.10;0.00;;;;;;;;;;10456371;28;20044;-27
2021/07/31 15:45:23;;;;;;;0.00;0.00;;;;;;;;;;10474739;28;20801;-25
2021/07/31 15:50:26;;;;;;;0.00;0.00;;;;;;;;;;10475509;28;20051;-26
2021/07/31 15:55:29;;;;;;;0.00;0.00;;;;;;;;;;10474366;28;20161;-26
2021/07/31 16:00:34;;;;;;;0.05;0.00;;;;;;;;;;10473130;28;20049;-25
2021/07/31 16:05:37;;;;;;;0.00;0.00;;;;;;;;;;10473167;28;20490;-25
2021/07/31 16:10:41;;;;;;;0.00;0.00;;;;;;;;;;10473260;28;20147;-25
2021/07/31 16:15:46;;;;;;;0.00;0.00;;;;;;;;;;10473942;28;20056;-27
2021/07/31 16:20:48;;;;;;;0.00;0.00;;;;;;;;;;10473621;28;20044;-26
2021/07/31 16:25:51;;;;;;;0.00;0.00;;;;;;;;;;10474172;28;20056;-26
2021/07/31 16:30:55;;;;;;;0.98;0.00;;;;;;;;;;10483620;28;20480;-26
2021/07/31 16:35:58;;;;;;;0.00;0.00;;;;;;;;;;10488874;28;20033;-25
2021/07/31 16:41:01;;;;;;;0.00;0.00;;;;;;;;;;10489073;28;20053;-25
2021/07/31 16:46:05;;;;;;;0.08;0.00;;;;;;;;;;10483565;28;20056;-26
2021/07/31 16:51:08;;;;;;;0.00;0.00;;;;;;;;;;10487782;28;20460;-25
2021/07/31 16:56:10;;;;;;;0.00;0.00;;;;;;;;;;10488553;28;20037;-25
2021/07/31 17:01:14;;;;;;;0.00;0.00;;;;;;;;;;10488669;28;20045;-26
2021/07/31 17:06:17;;;;;;;0.00;0.00;;;;;;;;;;10485475;28;20135;-27
2021/07/31 17:11:20;;;;;;;0.00;0.00;;;;;;;;;;10488655;28;20045;-25
2021/07/31 17:16:24;;;;;;;0.32;0.00;;;;;;;;;;10487812;28;20051;-26
2021/07/31 17:21:27;;;;;;;0.00;0.00;;;;;;;;;;10486763;28;20044;-25
2021/07/31 17:26:29;;;;;;;0.15;0.00;;;;;;;;;;10487822;28;20051;-26
2021/07/31 17:31:34;;;;;;;0.00;0.00;;;;;;;;;;10487709;28;20399;-27
2021/07/31 17:36:38;;;;;;;0.00;0.00;;;;;;;;;;10485036;28;20123;-26
2021/07/31 17:41:41;;;;;;;0.00;0.00;;;;;;;;;;10482091;28;20417;-28
2021/07/31 17:46:45;;;;;;;0.05;0.00;;;;;;;;;;10475092;28;20041;-26
2021/07/31 17:51:49;;;;;;;0.90;0.00;;;;;;;;;;10476305;28;20067;-28
2021/07/31 17:56:54;;;;;;;0.10;0.00;;;;;;;;;;10477605;28;20110;-26
2021/07/31 18:01:58;;;;;;;0.00;0.00;;;;;;;;;;10477027;28;20139;-28
2021/07/31 18:07:01;;;;;;;0.00;0.00;;;;;;;;;;10477869;28;20048;-27
2021/07/31 18:12:04;;;;;;;0.17;0.00;;;;;;;;;;10475884;28;20045;-27
2021/07/31 18:17:09;;;;;;;0.00;0.00;;;;;;;;;;10473794;28;20417;-26
2021/07/31 18:22:12;;;;;;;0.00;0.00;;;;;;;;;;10476049;28;20049;-26
2021/07/31 18:27:15;;;;;;;0.00;0.00;;;;;;;;;;10477146;28;20441;-26
2021/07/31 18:32:19;;;;;;;0.00;0.00;;;;;;;;;;10475803;28;20041;-26
2021/07/31 18:37:22;;;;;;;0.00;0.00;;;;;;;;;;10457852;28;20044;-26
2021/07/31 18:42:25;;;;;;;0.17;0.00;;;;;;;;;;10472500;28;20064;-28
2021/07/31 18:47:31;;;;;;;0.00;0.00;;;;;;;;;;10475159;28;20044;-27
2021/07/31 18:52:34;;;;;;;0.00;0.00;;;;;;;;;;10474916;28;20098;-26
2021/07/31 18:57:37;;;;;;;0.05;0.00;;;;;;;;;;10475860;28;20059;-27
2021/07/31 19:02:42;;;;;;;0.35;0.10;;;;;;;;;;10474378;28;20051;-26
2021/07/31 19:07:45;;;;;;;0.30;0.00;;;;;;;;;;10477089;28;20045;-27
2021/07/31 19:12:48;;;;;;;0.00;0.00;;;;;;;;;;10470625;28;20045;-26
2021/07/31 19:17:52;;;;;;;0.00;0.00;;;;;;;;;;10476629;28;20067;-26
2021/07/31 19:22:54;;;;;;;0.00;0.00;;;;;;;;;;10475361;28;20055;-26
2021/07/31 19:27:57;;;;;;;0.00;0.00;;;;;;;;;;10475920;28;20066;-26
2021/07/31 19:33:01;;;;;;;0.00;0.00;;;;;;;;;;10475064;28;20149;-26
2021/07/31 19:38:05;;;;;;;0.13;0.03;;;;;;;;;;10474619;28;20056;-27
2021/07/31 19:43:08;;;;;;;0.00;0.00;;;;;;;;;;10473234;28;20148;-27
2021/07/31 19:48:13;;;;;;;0.00;0.00;;;;;;;;;;10473239;28;20048;-28
2021/07/31 19:53:17;;;;;;;0.03;0.00;;;;;;;;;;10473724;28;20051;-26
2021/07/31 19:58:20;;;;;;;0.00;0.00;;;;;;;;;;10474554;28;20044;-27
2021/07/31 20:03:24;;;;;;;0.00;0.00;;;;;;;;;;10472040;28;20043;-26
2021/07/31 20:08:27;;;;;;;0.00;0.00;;;;;;;;;;10473076;28;20067;-27
2021/07/31 20:13:29;;;;;;;0.05;0.05;;;;;;;;;;10472385;28;20052;-26
2021/07/31 20:18:34;;;;;;;0.00;0.00;;;;;;;;;;10471742;28;20048;-27
2021/07/31 20:23:37;;;;;;;0.10;0.03;;;;;;;;;;10472646;28;20044;-26
2021/07/31 20:28:40;;;;;;;0.10;0.08;;;;;;;;;;10470887;28;20053;-26
2021/07/31 20:33:44;;;;;;;0.00;0.00;;;;;;;;;;10473357;28;20119;-26
2021/07/31 20:38:47;;;;;;;0.63;0.00;;;;;;;;;;10472406;28;20405;-26
2021/07/31 20:43:50;;;;;;;0.05;0.05;;;;;;;;;;10470442;28;20758;-27
2021/07/31 20:48:54;;;;;;;0.10;0.00;;;;;;;;;;10470125;28;20063;-26
2021/07/31 20:53:57;;;;;;;0.00;0.00;;;;;;;;;;10473152;28;20065;-27
2021/07/31 20:59:00;;;;;;;0.13;0.10;;;;;;;;;;10473347;28;20040;-26
2021/07/31 21:04:04;;;;;;;0.22;0.10;;;;;;;;;;10473108;28;20057;-27
2021/07/31 21:09:07;;;;;;;0.10;0.10;;;;;;;;;;10472733;28;20052;-27
2021/07/31 21:14:09;;;;;;;0.10;0.10;;;;;;;;;;10469712;28;20417;-27
2021/07/31 21:19:14;;;;;;;0.68;0.05;;;;;;;;;;10478995;28;20511;-27
2021/07/31 21:24:16;;;;;;;0.10;0.05;;;;;;;;;;10478244;28;20049;-27
2021/07/31 21:29:19;;;;;;;0.20;0.00;;;;;;;;;;10480283;28;20480;-27
2021/07/31 21:34:23;;;;;;;0.00;0.00;;;;;;;;;;10480417;28;20052;-27
2021/07/31 21:39:26;;;;;;;0.00;0.00;;;;;;;;;;10479832;28;20409;-26
2021/07/31 21:44:28;;;;;;;0.05;0.05;;;;;;;;;;10478738;28;20044;-27
2021/07/31 21:49:32;;;;;;;0.10;0.00;;;;;;;;;;10479429;28;20046;-27
2021/07/31 21:54:35;;;;;;;0.47;0.10;;;;;;;;;;10476221;28;20048;-27
2021/07/31 21:59:39;;;;;;;0.00;0.00;;;;;;;;;;10479238;28;20032;-26
2021/07/31 22:04:43;;;;;;;0.10;0.10;;;;;;;;;;10457255;28;20049;-26
2021/07/31 22:09:46;;;;;;;0.10;0.10;;;;;;;;;;10479336;28;20055;-27
2021/07/31 22:14:49;;;;;;;0.10;0.10;;;;;;;;;;10478543;28;20044;-27
2021/07/31 22:19:53;;;;;;;0.32;0.17;;;;;;;;;;10478480;28;20051;-27
2021/07/31 22:24:57;;;;;;;0.28;0.10;;;;;;;;;;10458620;28;20055;-26
2021/07/31 22:29:59;;;;;;;0.00;0.00;;;;;;;;;;10475848;28;20040;-26
2021/07/31 22:35:04;;;;;;;0.00;0.00;;;;;;;;;;10478231;28;20036;-27
2021/07/31 22:40:07;;;;;;;1.38;0.10;;;;;;;;;;10477240;28;20382;-27
2021/07/31 22:45:10;;;;;;;0.05;0.05;;;;;;;;;;10477453;28;20048;-28
2021/07/31 22:50:15;;;;;;;0.00;0.00;;;;;;;;;;10475566;28;20071;-27
2021/07/31 22:55:18;;;;;;;0.10;0.00;;;;;;;;;;10476808;28;20413;-27
2021/07/31 23:00:20;;;;;;;0.00;0.00;;;;;;;;;;10473322;28;20036;-27
2021/07/31 23:05:24;;;;;;;0.00;0.00;;;;;;;;;;10474185;28;20056;-27
2021/07/31 23:10:27;;;;;;;0.20;0.10;;;;;;;;;;10475515;28;20040;-27
2021/07/31 23:15:30;;;;;;;0.10;0.10;;;;;;;;;;10475311;28;20048;-27
2021/07/31 23:20:34;;;;;;;0.10;0.10;;;;;;;;;;10476266;28;20056;-27
2021/07/31 23:25:36;;;;;;;0.05;0.05;;;;;;;;;;10475097;28;20504;-26
2021/07/31 23:30:39;;;;;;;0.10;0.10;;;;;;;;;;10474307;28;20033;-27
2021/07/31 23:35:43;;;;;;;0.10;0.10;;;;;;;;;;10472959;28;20048;-26
2021/07/31 23:40:46;;;;;;;0.00;0.00;;;;;;;;;;10473188;28;20393;-27
2021/07/31 23:45:48;;;;;;;0.10;0.10;;;;;;;;;;10474241;28;20056;-27
2021/07/31 23:50:53;;;;;;;0.00;0.00;;;;;;;;;;10475223;28;20052;-27
2021/07/31 23:55:56;;;;;;;0.10;0.10;;;;;;;;;;10474516;28;20154;-27
